createdAt,value
2024-04-12T00:01:06.929Z,99200.84
2024-04-12T00:05:08.796Z,99193.50
2024-04-12T00:09:11.093Z,99187.28
2024-04-12T00:13:12.824Z,99189.72
2024-04-12T00:17:18.278Z,99184.31
2024-04-12T00:21:24.475Z,99181.47
2024-04-12T00:25:26.204Z,99186.66
2024-04-12T00:29:32.619Z,99199.41
2024-04-12T00:33:36.133Z,99189.59
2024-04-12T00:37:41.272Z,99182.28
2024-04-12T00:41:44.342Z,99178.41
2024-04-12T00:45:47.465Z,99184.13
2024-04-12T00:49:54.621Z,99181.19
2024-04-12T00:54:00.263Z,99178.13
2024-04-12T00:58:02.485Z,99178.50
2024-04-12T01:02:10.069Z,99180.56
2024-04-12T01:06:12.061Z,99178.19
2024-04-12T01:10:13.974Z,99178.31
2024-04-12T01:14:15.962Z,99182.81
2024-04-12T01:18:18.286Z,99170.16
2024-04-12T01:22:20.261Z,99170.66
2024-04-12T01:26:25.055Z,99185.00
2024-04-12T01:30:27.108Z,99188.94
2024-04-12T01:34:31.375Z,99191.09
2024-04-12T01:38:38.584Z,99202.84
2024-04-12T01:42:44.571Z,99196.34
2024-04-12T01:46:49.668Z,99192.56
2024-04-12T01:50:54.655Z,99189.50
2024-04-12T01:55:08.812Z,99200.53
2024-04-12T01:59:16.209Z,99194.16
2024-04-12T02:03:20.114Z,99193.91
2024-04-12T02:07:28.630Z,99190.94
2024-04-12T02:11:30.388Z,99200.28
2024-04-12T02:15:32.115Z,99196.50
2024-04-12T02:19:37.334Z,99203.25
2024-04-12T02:23:39.502Z,99208.13
2024-04-12T02:27:41.711Z,99203.50
2024-04-12T02:31:45.075Z,99218.50
2024-04-12T02:35:48.315Z,99217.91
2024-04-12T02:39:50.481Z,99222.50
2024-04-12T02:43:56.728Z,99226.31
2024-04-12T02:47:58.842Z,99230.19
2024-04-12T02:52:02.472Z,99236.81
2024-04-12T02:56:13.058Z,99234.66
2024-04-12T03:00:23.948Z,99235.22
2024-04-12T03:04:25.829Z,99230.47
2024-04-12T03:08:28.137Z,99231.97
2024-04-12T03:12:29.921Z,99235.97
2024-04-12T03:16:32.887Z,99238.09
2024-04-12T03:20:36.871Z,99236.63
2024-04-12T03:24:38.767Z,99243.13
2024-04-12T03:28:41.923Z,99240.03
2024-04-12T03:32:47.531Z,99239.31
2024-04-12T03:36:50.335Z,99240.38
2024-04-12T03:41:02.029Z,99240.97
2024-04-12T03:45:14.619Z,99235.91
2024-04-12T03:49:17.152Z,99244.19
2024-04-12T03:53:19.085Z,99239.94
2024-04-12T03:57:28.599Z,99237.34
2024-04-12T04:01:32.687Z,99238.25
2024-04-12T04:05:34.688Z,99233.06
2024-04-12T04:09:36.986Z,99227.84
2024-04-12T04:13:43.161Z,99231.28
2024-04-12T04:17:51.238Z,99221.72
2024-04-12T04:21:53.114Z,99224.56
2024-04-12T04:25:56.698Z,99222.75
2024-04-12T04:29:58.789Z,99223.81
2024-04-12T04:34:00.652Z,99223.81
2024-04-12T04:38:02.483Z,99220.31
2024-04-12T04:42:06.445Z,99223.59
2024-04-12T04:46:28.491Z,99216.53
2024-04-12T04:50:30.517Z,99214.41
2024-04-12T04:54:32.306Z,99215.16
2024-04-12T04:58:35.757Z,99221.03
2024-04-12T05:02:37.832Z,99227.69
2024-04-12T05:06:39.742Z,99238.47
2024-04-12T05:10:41.720Z,99244.75
2024-04-12T05:14:47.860Z,99246.47
2024-04-12T05:18:50.901Z,99241.16
2024-04-12T05:22:52.847Z,99250.44
2024-04-12T05:27:03.146Z,99257.09
2024-04-12T05:31:13.096Z,99261.25
2024-04-12T05:35:16.947Z,99268.84
2024-04-12T05:39:21.146Z,99270.34
2024-04-12T05:43:23.922Z,99266.72
2024-04-12T05:47:26.329Z,99257.00
2024-04-12T05:51:28.360Z,99260.06
2024-04-12T05:55:31.551Z,99262.41
2024-04-12T05:59:33.872Z,99262.84
2024-04-12T06:03:54.079Z,99257.22
2024-04-12T06:07:59.812Z,99262.84
2024-04-12T06:12:04.242Z,99264.19
2024-04-12T06:16:06.849Z,99271.72
2024-04-12T06:20:09.773Z,99268.97
2024-04-12T06:24:11.790Z,99270.53
2024-04-12T06:28:14.749Z,99271.88
2024-04-12T06:32:17.974Z,99276.88
2024-04-12T06:36:20.162Z,99266.09
2024-04-12T06:40:29.574Z,99266.56
2024-04-12T06:44:34.428Z,99258.22
2024-04-12T06:48:38.052Z,99259.78
2024-04-12T06:52:42.146Z,99262.72
2024-04-12T06:56:44.075Z,99259.47
2024-04-12T07:00:47.874Z,99263.03
2024-04-12T07:04:49.891Z,99262.22
2024-04-12T07:08:51.967Z,99262.78
2024-04-12T07:12:57.080Z,99263.69
2024-04-12T07:17:01.023Z,99267.66
2024-04-12T07:21:18.282Z,99263.88
2024-04-12T07:25:25.036Z,99268.00
2024-04-12T07:29:26.756Z,99255.72
2024-04-12T07:33:29.144Z,99258.31
2024-04-12T07:37:33.719Z,99262.22
2024-04-12T07:41:48.000Z,99262.34
2024-04-12T07:45:49.768Z,99258.88
2024-04-12T07:49:51.559Z,99263.22
2024-04-12T07:53:54.855Z,99259.06
2024-04-12T07:57:56.897Z,99259.28
2024-04-12T08:01:59.825Z,99256.53
2024-04-12T08:06:04.315Z,99257.03
2024-04-12T08:10:27.473Z,99262.16
2024-04-12T08:14:31.379Z,99253.41
2024-04-12T08:18:37.871Z,99252.91
2024-04-12T08:22:45.198Z,99246.25
2024-04-12T08:26:49.522Z,99249.81
2024-04-12T08:30:55.993Z,99241.28
2024-04-12T08:35:08.666Z,99239.69
2024-04-12T08:39:14.028Z,99239.66
2024-04-12T08:43:21.038Z,99233.03
2024-04-12T08:47:26.942Z,99230.13
2024-04-12T08:51:35.854Z,99224.03
2024-04-12T08:55:43.920Z,99233.69
2024-04-12T08:59:48.379Z,99223.72
2024-04-12T09:03:53.322Z,99215.53
2024-04-12T09:08:01.448Z,99219.88
2024-04-12T09:12:13.959Z,99213.34
2024-04-12T09:16:20.819Z,99216.59
2024-04-12T09:20:31.764Z,99206.34
2024-04-12T09:24:33.932Z,99200.00
2024-04-12T09:28:39.163Z,99192.19
2024-04-12T09:32:54.671Z,99191.09
2024-04-12T09:36:58.097Z,99186.34
2024-04-12T09:41:14.733Z,99178.50
2024-04-12T09:45:23.986Z,99173.31
2024-04-12T09:49:46.290Z,99171.00
2024-04-12T09:54:07.187Z,99155.94
2024-04-12T09:58:31.521Z,99157.06
2024-04-12T10:02:51.839Z,99151.84
2024-04-12T10:07:35.013Z,99138.91
2024-04-12T10:11:55.707Z,99144.66
2024-04-12T10:16:22.514Z,99140.41
2024-04-12T10:20:45.170Z,99135.50
2024-04-12T10:25:13.347Z,99132.66
2024-04-12T10:29:36.223Z,99130.94
2024-04-12T10:34:03.968Z,99122.88
2024-04-12T10:38:13.258Z,99113.94
2024-04-12T10:42:27.426Z,99113.63
2024-04-12T10:46:29.420Z,99111.94
2024-04-12T10:50:31.475Z,99105.47
2024-04-12T10:54:34.358Z,99098.72
2024-04-12T10:58:36.188Z,99093.78
2024-04-12T11:02:41.819Z,99088.69
2024-04-12T11:06:46.315Z,99088.84
2024-04-12T11:10:59.644Z,99088.34
2024-04-12T11:15:20.235Z,99089.06
2024-04-12T11:19:40.618Z,99089.22
2024-04-12T11:24:01.171Z,99083.88
2024-04-12T11:28:26.516Z,99077.84
2024-04-12T11:32:28.881Z,99076.19
2024-04-12T11:36:34.681Z,99076.91
2024-04-12T11:40:39.716Z,99073.41
2024-04-12T11:44:46.357Z,99067.59
2024-04-12T11:48:48.332Z,99058.16
2024-04-12T11:52:55.982Z,99048.91
2024-04-12T11:57:03.242Z,99039.03
2024-04-12T12:01:05.903Z,99027.50
2024-04-12T12:05:07.777Z,99030.16
2024-04-12T12:09:15.790Z,99025.44
2024-04-12T12:13:18.211Z,99024.63
2024-04-12T12:17:21.223Z,99016.13
2024-04-12T12:21:24.602Z,99010.44
2024-04-12T12:25:28.051Z,99003.34
2024-04-12T12:29:30.011Z,99001.13
2024-04-12T12:33:39.546Z,98996.59
2024-04-12T12:37:41.711Z,98992.25
2024-04-12T12:41:47.166Z,98976.56
2024-04-12T12:45:49.149Z,98969.00
2024-04-12T12:49:54.722Z,98966.47
2024-04-12T12:53:57.751Z,98970.75
2024-04-12T12:58:12.146Z,98966.47
2024-04-12T13:02:16.395Z,98955.63
2024-04-12T13:06:24.671Z,98951.44
2024-04-12T13:10:26.527Z,98941.31
2024-04-12T13:14:28.431Z,98943.75
2024-04-12T13:18:30.450Z,98940.41
2024-04-12T13:22:33.827Z,98935.06
2024-04-12T13:26:35.775Z,98931.53
2024-04-12T13:30:37.484Z,98925.13
2024-04-12T13:34:39.779Z,98908.16
2024-04-12T13:38:41.741Z,98906.78
2024-04-12T13:42:43.647Z,98904.34
2024-04-12T13:47:03.973Z,98888.28
2024-04-12T13:51:06.088Z,98891.56
2024-04-12T13:55:12.619Z,98897.00
2024-04-12T13:59:14.547Z,98879.56
2024-04-12T14:03:23.376Z,98880.25
2024-04-12T14:07:25.595Z,98874.22
2024-04-12T14:11:28.820Z,98869.34
2024-04-12T14:15:31.214Z,98861.09
2024-04-12T14:19:33.083Z,98857.69
2024-04-12T14:23:35.095Z,98855.13
2024-04-12T14:27:37.200Z,98845.91
2024-04-12T14:31:39.874Z,98845.56
2024-04-12T14:35:43.491Z,98843.00
2024-04-12T14:39:47.810Z,98837.66
2024-04-12T14:43:49.615Z,98829.25
2024-04-12T14:47:58.789Z,98818.81
2024-04-12T14:52:13.104Z,98812.88
2024-04-12T14:56:18.516Z,98811.50
2024-04-12T15:00:22.599Z,98812.19
2024-04-12T15:04:42.823Z,98820.56
2024-04-12T15:09:03.649Z,98818.16
2024-04-12T15:13:24.405Z,98821.44
2024-04-12T15:17:44.947Z,98820.84
2024-04-12T15:22:05.342Z,98814.34
2024-04-12T15:26:26.096Z,98812.28
2024-04-12T15:30:46.324Z,98812.53
2024-04-12T15:35:07.891Z,98811.94
2024-04-12T15:39:29.159Z,98808.06
2024-04-12T15:44:02.886Z,98804.94
2024-04-12T15:48:13.299Z,98804.50
2024-04-12T16:03:47.116Z,98791.59
2024-04-12T16:08:08.767Z,98784.13
2024-04-12T16:12:12.353Z,98781.91
2024-04-12T16:16:23.311Z,98783.91
2024-04-12T16:20:26.352Z,98788.41
2024-04-12T16:24:28.295Z,98790.91
2024-04-12T16:28:31.146Z,98795.13
2024-04-12T16:32:37.229Z,98796.28
2024-04-12T16:36:39.410Z,98789.28
2024-04-12T16:40:42.681Z,98791.84
2024-04-12T16:44:45.532Z,98793.28
2024-04-12T16:48:48.528Z,98785.19
2024-04-12T16:52:51.407Z,98777.91
2024-04-12T16:57:07.934Z,98780.06
2024-04-12T17:05:27.677Z,98785.56
2024-04-12T17:09:43.023Z,98790.91
2024-04-12T17:13:46.480Z,98795.00
2024-04-12T17:17:49.057Z,98791.06
2024-04-12T17:21:52.045Z,98796.91
2024-04-12T17:25:54.365Z,98790.25
2024-04-12T17:30:08.811Z,98781.75
2024-04-12T17:34:11.590Z,98776.84
2024-04-12T17:38:13.382Z,98781.16
2024-04-12T17:42:15.122Z,98773.81
2024-04-12T17:46:20.696Z,98785.13
2024-04-12T17:50:25.205Z,98784.84
2024-04-12T17:54:27.236Z,98784.19
2024-04-12T17:58:31.396Z,98791.22
2024-04-12T18:02:56.310Z,98791.97
2024-04-12T18:07:00.978Z,98795.31
2024-04-12T18:11:09.984Z,98794.84
2024-04-12T18:15:11.846Z,98799.44
2024-04-12T18:19:13.832Z,98793.94
2024-04-12T18:23:15.586Z,98799.63
2024-04-12T18:27:17.729Z,98808.59
2024-04-12T18:31:19.936Z,98813.13
2024-04-12T18:35:21.812Z,98820.91
2024-04-12T18:39:42.178Z,98826.88
2024-04-12T18:44:02.687Z,98825.78
2024-04-12T18:48:04.969Z,98829.94
2024-04-12T18:52:08.094Z,98830.63
2024-04-12T18:56:14.685Z,98839.88
2024-04-12T19:00:17.290Z,98833.94
2024-04-12T19:04:19.731Z,98833.31
2024-04-12T19:08:21.865Z,98837.09
2024-04-12T19:12:24.301Z,98841.72
2024-04-12T19:16:27.207Z,98839.72
2024-04-12T19:20:32.034Z,98845.69
2024-04-12T19:24:34.400Z,98843.94
2024-04-12T19:28:36.471Z,98857.56
2024-04-12T19:32:38.885Z,98850.53
2024-04-12T19:36:44.399Z,98854.50
2024-04-12T19:40:55.040Z,98853.19
2024-04-12T19:45:00.451Z,98859.13
2024-04-12T19:49:08.753Z,98864.25
2024-04-12T19:53:13.933Z,98870.69
2024-04-12T19:57:42.141Z,98879.25
2024-04-12T20:01:43.904Z,98884.38
2024-04-12T20:05:49.774Z,98869.91
2024-04-12T20:09:51.901Z,98865.97
2024-04-12T20:13:53.675Z,98876.81
2024-04-12T20:17:56.628Z,98868.28
2024-04-12T20:21:58.470Z,98867.78
2024-04-12T20:26:14.970Z,98871.44
2024-04-12T20:30:32.248Z,98873.38
2024-04-12T20:34:56.611Z,98884.06
2024-04-12T20:38:58.660Z,98883.44
2024-04-12T20:43:00.379Z,98884.56
2024-04-12T20:47:02.995Z,98889.34
2024-04-12T20:51:05.350Z,98901.03
2024-04-12T20:55:08.077Z,98895.25
2024-04-12T20:59:12.366Z,98893.78
2024-04-12T21:03:14.168Z,98904.81
2024-04-12T21:07:16.143Z,98898.38
2024-04-12T21:11:26.342Z,98907.72
2024-04-12T21:15:30.429Z,98895.06
2024-04-12T21:19:38.193Z,98905.91
2024-04-12T21:23:40.286Z,98903.59
2024-04-12T21:27:42.056Z,98904.59
2024-04-12T21:31:44.481Z,98906.22
2024-04-12T21:35:58.141Z,98911.97
2024-04-12T21:40:00.170Z,98906.91
2024-04-12T21:44:01.861Z,98904.91
2024-04-12T21:48:04.242Z,98909.19
2024-04-12T21:52:07.693Z,98909.84
2024-04-12T21:56:35.024Z,98904.28
2024-04-12T22:01:17.859Z,98901.63
2024-04-12T22:05:19.885Z,98906.38
2024-04-12T22:09:21.593Z,98903.44
2024-04-12T22:13:24.320Z,98910.19
2024-04-12T22:17:26.190Z,98895.53
2024-04-12T22:21:28.116Z,98892.91
2024-04-12T22:25:29.825Z,98892.06
2024-04-12T22:29:31.867Z,98881.25
2024-04-12T22:33:34.501Z,98885.16
2024-04-12T22:37:36.482Z,98880.72
2024-04-12T22:41:38.182Z,98872.00
2024-04-12T22:45:40.947Z,98862.16
2024-04-12T22:49:42.560Z,98863.78
2024-04-12T22:53:46.776Z,98864.13
2024-04-12T22:57:49.372Z,98856.72
2024-04-12T23:01:52.640Z,98859.84
2024-04-12T23:05:54.389Z,98860.47
2024-04-12T23:09:56.358Z,98864.72
2024-04-12T23:14:01.429Z,98862.56
2024-04-12T23:18:03.538Z,98868.25
2024-04-12T23:22:06.260Z,98869.25
2024-04-12T23:26:20.094Z,98859.72
2024-04-12T23:30:21.972Z,98861.00
2024-04-12T23:34:24.169Z,98863.28
2024-04-12T23:38:25.842Z,98863.09
2024-04-12T23:42:27.898Z,98863.91
2024-04-12T23:46:29.617Z,98868.28
2024-04-12T23:50:31.644Z,98862.34
2024-04-12T23:54:33.543Z,98870.59
2024-04-12T23:58:36.828Z,98865.47
